sensor_id;sensor_type;location;lat;lon;timestamp;pressure;altitude;pressure_sealevel;temperature;humidity
69219;BME280;56232;53.384;-2.732;2024-02-26T00:00:03;100229.38;;;3.59;41.60
69219;BME280;56232;53.384;-2.732;2024-02-26T00:02:28;100229.66;;;3.64;41.43
69219;BME280;56232;53.384;-2.732;2024-02-26T00:04:54;100231.98;;;3.58;41.42
69219;BME280;56232;53.384;-2.732;2024-02-26T00:07:19;100238.12;;;3.57;41.43
69219;BME280;56232;53.384;-2.732;2024-02-26T00:09:45;100243.95;;;3.13;41.41
69219;BME280;56232;53.384;-2.732;2024-02-26T00:12:11;100244.86;;;3.52;41.42
69219;BME280;56232;53.384;-2.732;2024-02-26T00:14:37;100252.40;;;3.46;41.47
69219;BME280;56232;53.384;-2.732;2024-02-26T00:17:03;100253.54;;;3.25;41.59
69219;BME280;56232;53.384;-2.732;2024-02-26T00:19:28;100255.66;;;3.29;41.54
69219;BME280;56232;53.384;-2.732;2024-02-26T00:21:54;100261.96;;;3.24;41.58
69219;BME280;56232;53.384;-2.732;2024-02-26T00:24:20;100267.93;;;3.22;41.58
69219;BME280;56232;53.384;-2.732;2024-02-26T00:26:46;100271.88;;;2.75;41.47
69219;BME280;56232;53.384;-2.732;2024-02-26T00:29:11;100277.70;;;3.10;41.54
69219;BME280;56232;53.384;-2.732;2024-02-26T00:31:37;100281.09;;;3.10;41.54
69219;BME280;56232;53.384;-2.732;2024-02-26T00:34:03;100284.03;;;3.09;41.49
69219;BME280;56232;53.384;-2.732;2024-02-26T00:36:29;100287.39;;;3.09;41.45
69219;BME280;56232;53.384;-2.732;2024-02-26T00:38:55;100292.26;;;3.00;41.49
69219;BME280;56232;53.384;-2.732;2024-02-26T00:41:21;100291.96;;;2.91;41.60
69219;BME280;56232;53.384;-2.732;2024-02-26T00:43:46;100297.43;;;2.82;41.68
69219;BME280;56232;53.384;-2.732;2024-02-26T00:46:12;100299.45;;;2.80;41.72
69219;BME280;56232;53.384;-2.732;2024-02-26T00:48:38;100302.52;;;2.75;41.72
69219;BME280;56232;53.384;-2.732;2024-02-26T00:51:05;100304.88;;;3.41;41.66
69219;BME280;56232;53.384;-2.732;2024-02-26T00:53:29;100311.30;;;2.87;41.56
69219;BME280;56232;53.384;-2.732;2024-02-26T00:55:55;100311.60;;;2.68;41.77
69219;BME280;56232;53.384;-2.732;2024-02-26T00:58:21;100321.62;;;2.72;41.79
69219;BME280;56232;53.384;-2.732;2024-02-26T01:00:46;100324.37;;;3.35;41.69
69219;BME280;56232;53.384;-2.732;2024-02-26T01:03:12;100335.95;;;2.49;41.91
69219;BME280;56232;53.384;-2.732;2024-02-26T01:05:38;100338.99;;;2.52;41.93
69219;BME280;56232;53.384;-2.732;2024-02-26T01:08:05;100348.31;;;2.41;42.04
69219;BME280;56232;53.384;-2.732;2024-02-26T01:10:30;100351.57;;;2.47;41.98
69219;BME280;56232;53.384;-2.732;2024-02-26T01:12:56;100357.91;;;2.42;41.93
69219;BME280;56232;53.384;-2.732;2024-02-26T01:15:21;100360.32;;;2.82;42.19
69219;BME280;56232;53.384;-2.732;2024-02-26T01:17:47;100369.19;;;3.36;42.13
69219;BME280;56232;53.384;-2.732;2024-02-26T01:20:13;100371.18;;;2.29;42.15
69219;BME280;56232;53.384;-2.732;2024-02-26T01:22:39;100379.10;;;2.91;42.11
69219;BME280;56232;53.384;-2.732;2024-02-26T01:25:06;100378.96;;;3.47;41.95
69219;BME280;56232;53.384;-2.732;2024-02-26T01:27:36;100382.71;;;3.48;41.89
69219;BME280;56232;53.384;-2.732;2024-02-26T01:29:56;100383.77;;;2.40;41.82
69219;BME280;56232;53.384;-2.732;2024-02-26T01:32:22;100385.94;;;3.40;41.81
69219;BME280;56232;53.384;-2.732;2024-02-26T01:34:48;100391.35;;;2.83;41.87
69219;BME280;56232;53.384;-2.732;2024-02-26T01:37:14;100395.89;;;2.11;41.96
69219;BME280;56232;53.384;-2.732;2024-02-26T01:39:39;100401.43;;;3.26;41.84
69219;BME280;56232;53.384;-2.732;2024-02-26T01:42:06;100402.21;;;2.69;41.95
69219;BME280;56232;53.384;-2.732;2024-02-26T01:44:31;100405.08;;;3.18;42.02
69219;BME280;56232;53.384;-2.732;2024-02-26T01:47:01;100412.14;;;3.25;41.85
69219;BME280;56232;53.384;-2.732;2024-02-26T01:49:21;100416.42;;;2.14;41.92
69219;BME280;56232;53.384;-2.732;2024-02-26T01:51:47;100422.67;;;3.13;41.89
69219;BME280;56232;53.384;-2.732;2024-02-26T01:54:13;100427.14;;;2.94;42.07
69219;BME280;56232;53.384;-2.732;2024-02-26T01:56:40;100430.17;;;2.76;42.26
69219;BME280;56232;53.384;-2.732;2024-02-26T01:59:06;100431.70;;;2.79;42.23
69219;BME280;56232;53.384;-2.732;2024-02-26T02:01:31;100440.59;;;2.91;42.06
69219;BME280;56232;53.384;-2.732;2024-02-26T02:03:58;100442.82;;;2.85;42.13
69219;BME280;56232;53.384;-2.732;2024-02-26T02:06:22;100448.74;;;2.79;42.19
69219;BME280;56232;53.384;-2.732;2024-02-26T02:08:48;100454.34;;;2.34;42.13
69219;BME280;56232;53.384;-2.732;2024-02-26T02:11:13;100459.42;;;2.34;42.12
69219;BME280;56232;53.384;-2.732;2024-02-26T02:13:38;100463.29;;;3.03;41.88
69219;BME280;56232;53.384;-2.732;2024-02-26T02:16:05;100467.38;;;3.18;41.71
69219;BME280;56232;53.384;-2.732;2024-02-26T02:18:30;100471.73;;;2.06;41.77
69219;BME280;56232;53.384;-2.732;2024-02-26T02:20:55;100472.09;;;2.70;41.62
69219;BME280;56232;53.384;-2.732;2024-02-26T02:23:21;100478.74;;;3.22;41.58
69219;BME280;56232;53.384;-2.732;2024-02-26T02:25:46;100477.93;;;3.13;41.54
69219;BME280;56232;53.384;-2.732;2024-02-26T02:28:12;100476.64;;;3.06;41.59
69219;BME280;56232;53.384;-2.732;2024-02-26T02:30:38;100478.47;;;1.91;41.58
69219;BME280;56232;53.384;-2.732;2024-02-26T02:33:03;100483.58;;;2.92;41.64
69219;BME280;56232;53.384;-2.732;2024-02-26T02:35:28;100490.11;;;2.90;41.62
69219;BME280;56232;53.384;-2.732;2024-02-26T02:37:55;100493.27;;;2.28;41.65
69219;BME280;56232;53.384;-2.732;2024-02-26T02:40:19;100497.89;;;2.79;41.70
69219;BME280;56232;53.384;-2.732;2024-02-26T02:42:44;100501.89;;;2.82;41.67
69219;BME280;56232;53.384;-2.732;2024-02-26T02:45:10;100504.39;;;1.66;41.61
69219;BME280;56232;53.384;-2.732;2024-02-26T02:47:36;100504.14;;;1.70;41.53
69219;BME280;56232;53.384;-2.732;2024-02-26T02:50:01;100508.71;;;2.70;41.54
69219;BME280;56232;53.384;-2.732;2024-02-26T02:52:26;100510.12;;;2.63;41.64
69219;BME280;56232;53.384;-2.732;2024-02-26T02:54:51;100513.49;;;2.64;41.63
69219;BME280;56232;53.384;-2.732;2024-02-26T02:57:17;100516.04;;;2.62;41.61
69219;BME280;56232;53.384;-2.732;2024-02-26T02:59:43;100517.93;;;2.55;41.59
69219;BME280;56232;53.384;-2.732;2024-02-26T03:02:08;100524.06;;;2.48;41.66
69219;BME280;56232;53.384;-2.732;2024-02-26T03:04:33;100528.81;;;2.47;41.66
69219;BME280;56232;53.384;-2.732;2024-02-26T03:06:59;100532.63;;;2.40;41.57
69219;BME280;56232;53.384;-2.732;2024-02-26T03:09:25;100533.12;;;2.27;41.58
69219;BME280;56232;53.384;-2.732;2024-02-26T03:11:51;100535.42;;;2.21;41.58
69219;BME280;56232;53.384;-2.732;2024-02-26T03:14:16;100538.07;;;2.17;41.59
69219;BME280;56232;53.384;-2.732;2024-02-26T03:16:41;100547.64;;;2.14;41.50
69219;BME280;56232;53.384;-2.732;2024-02-26T03:19:07;100551.96;;;1.94;41.56
69219;BME280;56232;53.384;-2.732;2024-02-26T03:21:32;100552.37;;;2.31;41.70
69219;BME280;56232;53.384;-2.732;2024-02-26T03:23:58;100561.97;;;2.16;41.87
69219;BME280;56232;53.384;-2.732;2024-02-26T03:26:23;100570.27;;;1.57;41.97
69219;BME280;56232;53.384;-2.732;2024-02-26T03:28:49;100572.21;;;2.04;41.94
69219;BME280;56232;53.384;-2.732;2024-02-26T03:31:15;100579.00;;;1.91;42.13
69219;BME280;56232;53.384;-2.732;2024-02-26T03:33:40;100580.46;;;1.86;42.14
69219;BME280;56232;53.384;-2.732;2024-02-26T03:36:06;100583.00;;;2.35;42.23
69219;BME280;56232;53.384;-2.732;2024-02-26T03:38:31;100588.74;;;2.32;42.38
69219;BME280;56232;53.384;-2.732;2024-02-26T03:40:57;100591.88;;;1.95;42.24
69219;BME280;56232;53.384;-2.732;2024-02-26T03:43:22;100595.34;;;2.06;42.31
69219;BME280;56232;53.384;-2.732;2024-02-26T03:45:48;100600.31;;;1.74;42.25
69219;BME280;56232;53.384;-2.732;2024-02-26T03:48:14;100609.22;;;2.42;42.04
69219;BME280;56232;53.384;-2.732;2024-02-26T03:50:40;100614.82;;;2.15;41.77
69219;BME280;56232;53.384;-2.732;2024-02-26T03:53:06;100622.08;;;2.38;41.64
69219;BME280;56232;53.384;-2.732;2024-02-26T03:55:30;100626.40;;;2.90;41.51
69219;BME280;56232;53.384;-2.732;2024-02-26T03:57:56;100630.19;;;2.42;41.67
69219;BME280;56232;53.384;-2.732;2024-02-26T04:00:22;100634.87;;;3.30;41.47
69219;BME280;56232;53.384;-2.732;2024-02-26T04:02:47;100640.50;;;2.46;41.58
69219;BME280;56232;53.384;-2.732;2024-02-26T04:05:14;100648.21;;;3.22;41.33
69219;BME280;56232;53.384;-2.732;2024-02-26T04:07:39;100647.87;;;3.43;40.99
69219;BME280;56232;53.384;-2.732;2024-02-26T04:10:08;100646.29;;;3.08;40.96
69219;BME280;56232;53.384;-2.732;2024-02-26T04:12:29;100651.30;;;3.21;40.82
69219;BME280;56232;53.384;-2.732;2024-02-26T04:14:55;100659.21;;;3.81;40.95
69219;BME280;56232;53.384;-2.732;2024-02-26T04:17:20;100662.43;;;2.82;40.79
69219;BME280;56232;53.384;-2.732;2024-02-26T04:19:45;100666.00;;;3.00;40.65
69219;BME280;56232;53.384;-2.732;2024-02-26T04:22:12;100669.51;;;4.13;40.50
69219;BME280;56232;53.384;-2.732;2024-02-26T04:24:37;100674.40;;;3.43;40.70
69219;BME280;56232;53.384;-2.732;2024-02-26T04:27:04;100686.45;;;3.35;40.67
69219;BME280;56232;53.384;-2.732;2024-02-26T04:29:29;100696.22;;;2.62;40.83
69219;BME280;56232;53.384;-2.732;2024-02-26T04:31:54;100704.64;;;3.66;40.72
69219;BME280;56232;53.384;-2.732;2024-02-26T04:34:20;100712.24;;;3.55;40.78
69219;BME280;56232;53.384;-2.732;2024-02-26T04:36:45;100721.61;;;3.52;40.83
69219;BME280;56232;53.384;-2.732;2024-02-26T04:39:10;100729.44;;;3.45;40.78
69219;BME280;56232;53.384;-2.732;2024-02-26T04:41:36;100739.34;;;2.22;40.96
69219;BME280;56232;53.384;-2.732;2024-02-26T04:44:02;100744.84;;;1.93;41.12
69219;BME280;56232;53.384;-2.732;2024-02-26T04:46:28;100755.39;;;2.89;41.27
69219;BME280;56232;53.384;-2.732;2024-02-26T04:48:54;100759.92;;;2.80;41.35
69219;BME280;56232;53.384;-2.732;2024-02-26T04:51:19;100761.83;;;2.74;41.30
69219;BME280;56232;53.384;-2.732;2024-02-26T04:53:45;100760.58;;;2.14;41.34
69219;BME280;56232;53.384;-2.732;2024-02-26T04:56:10;100764.61;;;2.52;41.43
69219;BME280;56232;53.384;-2.732;2024-02-26T04:58:36;100773.43;;;2.46;41.45
69219;BME280;56232;53.384;-2.732;2024-02-26T05:01:02;100781.06;;;2.34;41.60
69219;BME280;56232;53.384;-2.732;2024-02-26T05:03:27;100788.78;;;2.34;41.65
69219;BME280;56232;53.384;-2.732;2024-02-26T05:05:53;100793.19;;;2.79;41.68
69219;BME280;56232;53.384;-2.732;2024-02-26T05:08:19;100798.49;;;2.34;41.72
69219;BME280;56232;53.384;-2.732;2024-02-26T05:10:45;100803.55;;;2.93;41.67
69219;BME280;56232;53.384;-2.732;2024-02-26T05:13:09;100810.73;;;2.65;41.63
69219;BME280;56232;53.384;-2.732;2024-02-26T05:15:35;100811.92;;;2.88;41.39
69219;BME280;56232;53.384;-2.732;2024-02-26T05:18:00;100819.57;;;3.01;41.25
69219;BME280;56232;53.384;-2.732;2024-02-26T05:20:25;100820.46;;;3.17;41.13
69219;BME280;56232;53.384;-2.732;2024-02-26T05:22:51;100818.52;;;3.35;40.84
69219;BME280;56232;53.384;-2.732;2024-02-26T05:25:17;100831.82;;;2.86;40.79
69219;BME280;56232;53.384;-2.732;2024-02-26T05:27:42;100830.03;;;3.35;40.66
69219;BME280;56232;53.384;-2.732;2024-02-26T05:30:08;100832.06;;;3.18;40.75
69219;BME280;56232;53.384;-2.732;2024-02-26T05:32:31;100833.93;;;3.00;40.84
69219;BME280;56232;53.384;-2.732;2024-02-26T05:34:57;100835.63;;;2.88;40.96
69219;BME280;56232;53.384;-2.732;2024-02-26T05:37:23;100843.36;;;2.74;41.19
69219;BME280;56232;53.384;-2.732;2024-02-26T05:39:48;100853.29;;;3.13;41.23
69219;BME280;56232;53.384;-2.732;2024-02-26T05:42:13;100850.03;;;2.47;41.35
69219;BME280;56232;53.384;-2.732;2024-02-26T05:44:43;100861.77;;;1.97;41.35
69219;BME280;56232;53.384;-2.732;2024-02-26T05:47:05;100870.19;;;2.31;41.39
69219;BME280;56232;53.384;-2.732;2024-02-26T05:49:29;100875.47;;;2.19;41.51
69219;BME280;56232;53.384;-2.732;2024-02-26T05:52:00;100882.24;;;2.56;41.60
69219;BME280;56232;53.384;-2.732;2024-02-26T05:54:21;100888.25;;;1.94;41.77
69219;BME280;56232;53.384;-2.732;2024-02-26T05:56:47;100892.60;;;2.31;42.02
69219;BME280;56232;53.384;-2.732;2024-02-26T05:59:12;100902.53;;;2.43;41.90
69219;BME280;56232;53.384;-2.732;2024-02-26T06:01:37;100906.54;;;2.02;41.85
69219;BME280;56232;53.384;-2.732;2024-02-26T06:04:03;100910.51;;;2.14;41.71
69219;BME280;56232;53.384;-2.732;2024-02-26T06:06:28;100915.87;;;2.24;41.75
69219;BME280;56232;53.384;-2.732;2024-02-26T06:08:54;100922.77;;;2.39;41.56
69219;BME280;56232;53.384;-2.732;2024-02-26T06:11:19;100923.93;;;2.44;41.61
69219;BME280;56232;53.384;-2.732;2024-02-26T06:13:44;100926.14;;;2.65;41.39
69219;BME280;56232;53.384;-2.732;2024-02-26T06:16:11;100933.15;;;2.72;41.29
69219;BME280;56232;53.384;-2.732;2024-02-26T06:18:36;100930.84;;;2.89;41.12
69219;BME280;56232;53.384;-2.732;2024-02-26T06:21:01;100931.01;;;2.95;41.17
69219;BME280;56232;53.384;-2.732;2024-02-26T06:23:26;100938.54;;;3.06;41.20
69219;BME280;56232;53.384;-2.732;2024-02-26T06:25:51;100933.78;;;3.22;40.97
69219;BME280;56232;53.384;-2.732;2024-02-26T06:28:17;100939.30;;;2.17;40.97
69219;BME280;56232;53.384;-2.732;2024-02-26T06:30:47;100942.78;;;2.20;40.79
69219;BME280;56232;53.384;-2.732;2024-02-26T06:33:12;100949.50;;;2.13;40.76
69219;BME280;56232;53.384;-2.732;2024-02-26T06:35:32;100958.15;;;3.02;40.97
69219;BME280;56232;53.384;-2.732;2024-02-26T06:37:58;100957.51;;;2.85;41.08
69219;BME280;56232;53.384;-2.732;2024-02-26T06:40:24;100965.09;;;2.27;41.11
69219;BME280;56232;53.384;-2.732;2024-02-26T06:42:50;100970.99;;;2.68;41.16
69219;BME280;56232;53.384;-2.732;2024-02-26T06:45:16;100972.91;;;2.52;41.28
69219;BME280;56232;53.384;-2.732;2024-02-26T06:47:42;100972.17;;;2.21;41.56
69219;BME280;56232;53.384;-2.732;2024-02-26T06:50:08;100976.53;;;2.66;41.63
69219;BME280;56232;53.384;-2.732;2024-02-26T06:52:33;100983.04;;;2.03;41.74
69219;BME280;56232;53.384;-2.732;2024-02-26T06:54:58;100989.28;;;1.94;41.78
69219;BME280;56232;53.384;-2.732;2024-02-26T06:57:23;100993.57;;;1.95;41.79
69219;BME280;56232;53.384;-2.732;2024-02-26T06:59:49;100997.68;;;2.34;41.82
69219;BME280;56232;53.384;-2.732;2024-02-26T07:02:14;100997.83;;;1.76;41.86
69219;BME280;56232;53.384;-2.732;2024-02-26T07:04:40;101006.69;;;1.76;41.90
69219;BME280;56232;53.384;-2.732;2024-02-26T07:07:06;101013.41;;;2.31;41.81
69219;BME280;56232;53.384;-2.732;2024-02-26T07:09:31;101021.75;;;2.23;41.92
69219;BME280;56232;53.384;-2.732;2024-02-26T07:11:56;101029.93;;;2.22;41.84
69219;BME280;56232;53.384;-2.732;2024-02-26T07:14:22;101034.00;;;2.16;41.90
69219;BME280;56232;53.384;-2.732;2024-02-26T07:16:48;101033.14;;;1.69;41.86
69219;BME280;56232;53.384;-2.732;2024-02-26T07:19:14;101041.20;;;2.85;41.73
69219;BME280;56232;53.384;-2.732;2024-02-26T07:21:39;101040.83;;;2.07;41.86
69219;BME280;56232;53.384;-2.732;2024-02-26T07:24:07;101039.69;;;2.07;41.89
69219;BME280;56232;53.384;-2.732;2024-02-26T07:26:30;101038.75;;;1.45;42.00
69219;BME280;56232;53.384;-2.732;2024-02-26T07:28:55;101038.01;;;1.56;41.91
69219;BME280;56232;53.384;-2.732;2024-02-26T07:31:21;101040.01;;;1.58;42.01
69219;BME280;56232;53.384;-2.732;2024-02-26T07:33:46;101040.49;;;1.70;41.88
69219;BME280;56232;53.384;-2.732;2024-02-26T07:36:12;101039.97;;;2.32;41.69
69219;BME280;56232;53.384;-2.732;2024-02-26T07:38:38;101045.85;;;2.38;41.70
69219;BME280;56232;53.384;-2.732;2024-02-26T07:41:04;101049.52;;;2.00;41.56
69219;BME280;56232;53.384;-2.732;2024-02-26T07:43:28;101056.22;;;1.97;41.66
69219;BME280;56232;53.384;-2.732;2024-02-26T07:45:54;101062.77;;;2.11;41.57
69219;BME280;56232;53.384;-2.732;2024-02-26T07:48:20;101064.52;;;2.23;41.40
69219;BME280;56232;53.384;-2.732;2024-02-26T07:50:46;101068.31;;;2.39;41.25
69219;BME280;56232;53.384;-2.732;2024-02-26T07:53:11;101073.90;;;2.58;40.97
69219;BME280;56232;53.384;-2.732;2024-02-26T07:55:37;101081.19;;;2.92;41.19
69219;BME280;56232;53.384;-2.732;2024-02-26T07:58:02;101087.33;;;2.19;41.03
69219;BME280;56232;53.384;-2.732;2024-02-26T08:00:28;101086.38;;;2.84;40.85
69219;BME280;56232;53.384;-2.732;2024-02-26T08:02:54;101087.88;;;2.99;40.81
69219;BME280;56232;53.384;-2.732;2024-02-26T08:05:20;101093.78;;;2.62;40.76
69219;BME280;56232;53.384;-2.732;2024-02-26T08:07:45;101093.20;;;3.37;40.60
69219;BME280;56232;53.384;-2.732;2024-02-26T08:10:10;101094.26;;;3.45;40.45
69219;BME280;56232;53.384;-2.732;2024-02-26T08:12:36;101099.34;;;2.64;40.33
69219;BME280;56232;53.384;-2.732;2024-02-26T08:15:01;101106.08;;;3.42;40.33
69219;BME280;56232;53.384;-2.732;2024-02-26T08:17:27;101112.40;;;2.89;40.52
69219;BME280;56232;53.384;-2.732;2024-02-26T08:19:52;101118.78;;;4.12;40.62
69219;BME280;56232;53.384;-2.732;2024-02-26T08:22:18;101115.85;;;3.18;40.56
69219;BME280;56232;53.384;-2.732;2024-02-26T08:24:44;101123.01;;;4.42;40.54
69219;BME280;56232;53.384;-2.732;2024-02-26T08:27:10;101130.84;;;4.62;40.40
69219;BME280;56232;53.384;-2.732;2024-02-26T08:29:35;101139.91;;;3.51;40.51
69219;BME280;56232;53.384;-2.732;2024-02-26T08:32:00;101139.80;;;4.09;40.69
69219;BME280;56232;53.384;-2.732;2024-02-26T08:34:26;101143.51;;;3.71;40.43
69219;BME280;56232;53.384;-2.732;2024-02-26T08:36:52;101147.02;;;3.80;40.41
69219;BME280;56232;53.384;-2.732;2024-02-26T08:39:18;101148.61;;;3.80;40.56
69219;BME280;56232;53.384;-2.732;2024-02-26T08:41:43;101151.18;;;3.73;40.71
69219;BME280;56232;53.384;-2.732;2024-02-26T08:44:10;101152.32;;;3.78;40.71
69219;BME280;56232;53.384;-2.732;2024-02-26T08:46:35;101156.04;;;3.78;40.80
69219;BME280;56232;53.384;-2.732;2024-02-26T08:49:01;101165.32;;;3.81;40.58
69219;BME280;56232;53.384;-2.732;2024-02-26T08:51:27;101173.31;;;3.82;40.78
69219;BME280;56232;53.384;-2.732;2024-02-26T08:53:52;101176.46;;;3.74;41.01
69219;BME280;56232;53.384;-2.732;2024-02-26T08:56:18;101183.40;;;3.95;41.10
69219;BME280;56232;53.384;-2.732;2024-02-26T08:58:44;101185.63;;;4.85;40.56
69219;BME280;56232;53.384;-2.732;2024-02-26T09:01:10;101196.33;;;6.22;39.22
69219;BME280;56232;53.384;-2.732;2024-02-26T09:03:35;101201.12;;;7.72;37.60
69219;BME280;56232;53.384;-2.732;2024-02-26T09:06:01;101200.59;;;9.82;34.06
69219;BME280;56232;53.384;-2.732;2024-02-26T09:08:27;101196.29;;;10.76;32.14
69219;BME280;56232;53.384;-2.732;2024-02-26T09:10:53;101186.63;;;11.79;31.51
69219;BME280;56232;53.384;-2.732;2024-02-26T09:13:18;101190.10;;;11.29;31.37
69219;BME280;56232;53.384;-2.732;2024-02-26T09:15:44;101191.64;;;10.06;32.09
69219;BME280;56232;53.384;-2.732;2024-02-26T09:18:09;101192.13;;;9.43;32.96
69219;BME280;56232;53.384;-2.732;2024-02-26T09:20:35;101190.10;;;9.70;32.94
69219;BME280;56232;53.384;-2.732;2024-02-26T09:23:01;101201.20;;;10.07;32.57
69219;BME280;56232;53.384;-2.732;2024-02-26T09:25:26;101205.25;;;9.70;32.98
69219;BME280;56232;53.384;-2.732;2024-02-26T09:27:52;101212.15;;;9.67;33.56
69219;BME280;56232;53.384;-2.732;2024-02-26T09:30:18;101220.04;;;9.24;33.55
69219;BME280;56232;53.384;-2.732;2024-02-26T09:32:46;101229.67;;;8.97;34.44
69219;BME280;56232;53.384;-2.732;2024-02-26T09:35:09;101239.67;;;8.20;35.07
69219;BME280;56232;53.384;-2.732;2024-02-26T09:37:35;101240.66;;;8.08;35.55
69219;BME280;56232;53.384;-2.732;2024-02-26T09:40:00;101240.79;;;7.56;36.12
69219;BME280;56232;53.384;-2.732;2024-02-26T09:42:31;101249.14;;;6.59;36.35
69219;BME280;56232;53.384;-2.732;2024-02-26T09:44:54;101252.15;;;8.94;35.72
69219;BME280;56232;53.384;-2.732;2024-02-26T09:47:18;101255.72;;;9.39;34.35
69219;BME280;56232;53.384;-2.732;2024-02-26T09:49:43;101255.09;;;9.88;33.42
69219;BME280;56232;53.384;-2.732;2024-02-26T09:52:09;101261.98;;;11.40;32.38
69219;BME280;56232;53.384;-2.732;2024-02-26T09:54:34;101253.00;;;11.44;31.03
69219;BME280;56232;53.384;-2.732;2024-02-26T09:57:02;101255.55;;;12.17;30.79
69219;BME280;56232;53.384;-2.732;2024-02-26T09:59:26;101256.10;;;12.44;29.73
69219;BME280;56232;53.384;-2.732;2024-02-26T10:01:52;101260.45;;;12.67;30.14
69219;BME280;56232;53.384;-2.732;2024-02-26T10:04:18;101263.60;;;12.55;29.83
69219;BME280;56232;53.384;-2.732;2024-02-26T10:06:43;101269.21;;;13.04;29.61
69219;BME280;56232;53.384;-2.732;2024-02-26T10:09:09;101268.50;;;13.30;29.23
69219;BME280;56232;53.384;-2.732;2024-02-26T10:11:34;101273.94;;;14.17;28.58
69219;BME280;56232;53.384;-2.732;2024-02-26T10:14:00;101268.79;;;13.42;29.01
69219;BME280;56232;53.384;-2.732;2024-02-26T10:16:26;101269.73;;;13.57;29.14
69219;BME280;56232;53.384;-2.732;2024-02-26T10:18:52;101277.48;;;13.39;28.70
69219;BME280;56232;53.384;-2.732;2024-02-26T10:21:17;101278.31;;;13.03;29.51
69219;BME280;56232;53.384;-2.732;2024-02-26T10:23:43;101279.25;;;12.90;30.42
69219;BME280;56232;53.384;-2.732;2024-02-26T10:26:10;101287.94;;;11.67;31.45
69219;BME280;56232;53.384;-2.732;2024-02-26T10:28:34;101288.96;;;10.72;32.65
69219;BME280;56232;53.384;-2.732;2024-02-26T10:31:00;101290.63;;;10.23;33.30
69219;BME280;56232;53.384;-2.732;2024-02-26T10:33:26;101289.86;;;11.21;33.25
69219;BME280;56232;53.384;-2.732;2024-02-26T10:35:51;101292.25;;;11.39;33.51
69219;BME280;56232;53.384;-2.732;2024-02-26T10:38:17;101294.31;;;10.97;35.04
69219;BME280;56232;53.384;-2.732;2024-02-26T10:40:42;101298.97;;;10.79;33.92
69219;BME280;56232;53.384;-2.732;2024-02-26T10:43:08;101302.43;;;10.87;33.74
69219;BME280;56232;53.384;-2.732;2024-02-26T10:45:34;101310.26;;;10.92;35.11
69219;BME280;56232;53.384;-2.732;2024-02-26T10:48:00;101321.30;;;10.50;34.65
69219;BME280;56232;53.384;-2.732;2024-02-26T10:50:26;101324.33;;;10.47;34.69
69219;BME280;56232;53.384;-2.732;2024-02-26T10:52:51;101328.71;;;10.25;34.36
69219;BME280;56232;53.384;-2.732;2024-02-26T10:55:17;101340.73;;;11.26;35.30
69219;BME280;56232;53.384;-2.732;2024-02-26T10:57:43;101341.54;;;10.22;36.12
69219;BME280;56232;53.384;-2.732;2024-02-26T11:00:10;101343.69;;;9.37;36.44
69219;BME280;56232;53.384;-2.732;2024-02-26T11:02:34;101345.69;;;10.35;35.99
69219;BME280;56232;53.384;-2.732;2024-02-26T11:05:01;101350.45;;;10.83;35.32
69219;BME280;56232;53.384;-2.732;2024-02-26T11:07:25;101356.01;;;10.11;37.24
69219;BME280;56232;53.384;-2.732;2024-02-26T11:09:51;101352.81;;;10.28;37.17
69219;BME280;56232;53.384;-2.732;2024-02-26T11:12:17;101351.24;;;10.28;36.80
69219;BME280;56232;53.384;-2.732;2024-02-26T11:14:43;101349.88;;;10.16;36.94
69219;BME280;56232;53.384;-2.732;2024-02-26T11:17:08;101351.38;;;10.32;36.37
69219;BME280;56232;53.384;-2.732;2024-02-26T11:19:35;101350.72;;;10.74;37.10
69219;BME280;56232;53.384;-2.732;2024-02-26T11:21:59;101346.44;;;10.74;35.46
69219;BME280;56232;53.384;-2.732;2024-02-26T11:24:25;101348.53;;;10.81;37.32
69219;BME280;56232;53.384;-2.732;2024-02-26T11:26:52;101349.84;;;10.13;36.44
69219;BME280;56232;53.384;-2.732;2024-02-26T11:29:19;101356.81;;;10.88;36.74
69219;BME280;56232;53.384;-2.732;2024-02-26T11:31:41;101362.70;;;10.89;36.62
69219;BME280;56232;53.384;-2.732;2024-02-26T11:34:09;101369.99;;;11.03;36.50
69219;BME280;56232;53.384;-2.732;2024-02-26T11:36:33;101366.86;;;9.91;37.41
69219;BME280;56232;53.384;-2.732;2024-02-26T11:38:59;101369.30;;;9.69;37.76
69219;BME280;56232;53.384;-2.732;2024-02-26T11:41:24;101368.68;;;9.41;38.15
69219;BME280;56232;53.384;-2.732;2024-02-26T11:43:51;101371.20;;;9.79;37.90
69219;BME280;56232;53.384;-2.732;2024-02-26T11:48:41;101378.03;;;10.37;38.08
69219;BME280;56232;53.384;-2.732;2024-02-26T11:51:07;101374.31;;;10.98;38.14
69219;BME280;56232;53.384;-2.732;2024-02-26T11:53:32;101375.73;;;10.35;37.79
69219;BME280;56232;53.384;-2.732;2024-02-26T11:58:24;101378.93;;;11.12;37.62
69219;BME280;56232;53.384;-2.732;2024-02-26T12:00:49;101385.79;;;11.35;37.17
69219;BME280;56232;53.384;-2.732;2024-02-26T12:03:15;101391.32;;;10.73;37.43
69219;BME280;56232;53.384;-2.732;2024-02-26T12:05:41;101396.93;;;12.40;36.33
69219;BME280;56232;53.384;-2.732;2024-02-26T12:08:08;101396.20;;;11.79;36.34
69219;BME280;56232;53.384;-2.732;2024-02-26T12:10:33;101392.17;;;13.15;32.91
69219;BME280;56232;53.384;-2.732;2024-02-26T12:12:59;101397.62;;;11.66;35.89
69219;BME280;56232;53.384;-2.732;2024-02-26T12:15:24;101393.14;;;11.12;34.24
69219;BME280;56232;53.384;-2.732;2024-02-26T12:17:49;101391.38;;;11.15;38.30
69219;BME280;56232;53.384;-2.732;2024-02-26T12:20:17;101394.47;;;10.97;37.52
69219;BME280;56232;53.384;-2.732;2024-02-26T12:22:44;101387.57;;;11.25;38.10
69219;BME280;56232;53.384;-2.732;2024-02-26T12:25:08;101385.29;;;11.10;37.88
69219;BME280;56232;53.384;-2.732;2024-02-26T12:27:32;101389.62;;;9.78;38.54
69219;BME280;56232;53.384;-2.732;2024-02-26T12:29:57;101390.49;;;9.88;37.55
69219;BME280;56232;53.384;-2.732;2024-02-26T12:32:23;101393.10;;;10.82;37.94
69219;BME280;56232;53.384;-2.732;2024-02-26T12:34:48;101404.48;;;10.15;39.47
69219;BME280;56232;53.384;-2.732;2024-02-26T12:37:14;101399.58;;;10.40;39.16
69219;BME280;56232;53.384;-2.732;2024-02-26T12:39:40;101406.40;;;10.68;39.41
69219;BME280;56232;53.384;-2.732;2024-02-26T12:42:07;101408.10;;;10.29;39.41